sensor_id;sensor_type;location;lat;lon;timestamp;P1;durP1;ratioP1;P2;durP2;ratioP2
22415;SDS011;12204;50.600;4.608;2023-03-17T00:02:51;2.38;;;0.90;;
22415;SDS011;12204;50.600;4.608;2023-03-17T00:07:57;2.05;;;0.85;;
22415;SDS011;12204;50.600;4.608;2023-03-17T00:13:09;2.00;;;0.70;;
22415;SDS011;12204;50.600;4.608;2023-03-17T00:18:15;3.45;;;0.90;;
22415;SDS011;12204;50.600;4.608;2023-03-17T00:23:22;2.97;;;0.88;;
22415;SDS011;12204;50.600;4.608;2023-03-17T00:28:26;1.33;;;0.77;;
22415;SDS011;12204;50.600;4.608;2023-03-17T00:33:30;1.75;;;0.77;;
22415;SDS011;12204;50.600;4.608;2023-03-17T00:38:38;1.65;;;0.70;;
22415;SDS011;12204;50.600;4.608;2023-03-17T00:43:42;1.17;;;0.70;;
22415;SDS011;12204;50.600;4.608;2023-03-17T00:48:46;2.65;;;0.80;;
22415;SDS011;12204;50.600;4.608;2023-03-17T00:53:51;2.30;;;0.82;;
22415;SDS011;12204;50.600;4.608;2023-03-17T00:58:55;1.77;;;0.70;;
22415;SDS011;12204;50.600;4.608;2023-03-17T01:03:58;1.92;;;0.80;;
22415;SDS011;12204;50.600;4.608;2023-03-17T01:09:03;1.63;;;0.80;;
22415;SDS011;12204;50.600;4.608;2023-03-17T01:14:08;1.60;;;0.80;;
22415;SDS011;12204;50.600;4.608;2023-03-17T01:19:13;2.03;;;0.85;;
22415;SDS011;12204;50.600;4.608;2023-03-17T01:24:18;2.40;;;0.90;;
22415;SDS011;12204;50.600;4.608;2023-03-17T01:29:22;1.27;;;0.75;;
22415;SDS011;12204;50.600;4.608;2023-03-17T01:34:27;2.20;;;0.93;;
22415;SDS011;12204;50.600;4.608;2023-03-17T01:39:32;2.05;;;0.90;;
22415;SDS011;12204;50.600;4.608;2023-03-17T01:50:04;2.20;;;0.98;;
22415;SDS011;12204;50.600;4.608;2023-03-17T01:55:13;2.13;;;0.80;;
22415;SDS011;12204;50.600;4.608;2023-03-17T02:00:19;2.47;;;0.90;;
22415;SDS011;12204;50.600;4.608;2023-03-17T02:05:27;2.33;;;0.90;;
22415;SDS011;12204;50.600;4.608;2023-03-17T02:10:34;2.10;;;0.88;;
22415;SDS011;12204;50.600;4.608;2023-03-17T02:15:38;1.98;;;0.90;;
22415;SDS011;12204;50.600;4.608;2023-03-17T02:26:52;1.58;;;0.80;;
22415;SDS011;12204;50.600;4.608;2023-03-17T02:31:58;1.75;;;0.77;;
22415;SDS011;12204;50.600;4.608;2023-03-17T02:37:04;2.33;;;1.00;;
22415;SDS011;12204;50.600;4.608;2023-03-17T02:42:10;1.75;;;0.88;;
22415;SDS011;12204;50.600;4.608;2023-03-17T02:47:15;2.30;;;0.90;;
22415;SDS011;12204;50.600;4.608;2023-03-17T02:52:20;2.25;;;0.90;;
22415;SDS011;12204;50.600;4.608;2023-03-17T02:57:24;1.83;;;0.80;;
22415;SDS011;12204;50.600;4.608;2023-03-17T03:02:27;2.88;;;1.08;;
22415;SDS011;12204;50.600;4.608;2023-03-17T03:07:32;2.60;;;0.82;;
22415;SDS011;12204;50.600;4.608;2023-03-17T03:12:36;1.88;;;0.90;;
22415;SDS011;12204;50.600;4.608;2023-03-17T03:17:40;2.20;;;1.00;;
22415;SDS011;12204;50.600;4.608;2023-03-17T03:22:45;2.00;;;0.98;;
22415;SDS011;12204;50.600;4.608;2023-03-17T03:27:49;1.50;;;0.80;;
22415;SDS011;12204;50.600;4.608;2023-03-17T03:32:52;2.08;;;0.80;;
22415;SDS011;12204;50.600;4.608;2023-03-17T03:37:57;1.90;;;0.82;;
22415;SDS011;12204;50.600;4.608;2023-03-17T03:43:02;1.67;;;0.80;;
22415;SDS011;12204;50.600;4.608;2023-03-17T03:48:22;2.38;;;0.90;;
22415;SDS011;12204;50.600;4.608;2023-03-17T03:53:27;1.63;;;0.70;;
22415;SDS011;12204;50.600;4.608;2023-03-17T03:58:31;1.83;;;0.80;;
22415;SDS011;12204;50.600;4.608;2023-03-17T04:03:35;2.00;;;0.88;;
22415;SDS011;12204;50.600;4.608;2023-03-17T04:08:40;2.45;;;0.93;;
22415;SDS011;12204;50.600;4.608;2023-03-17T04:13:44;2.33;;;0.90;;
22415;SDS011;12204;50.600;4.608;2023-03-17T04:18:47;1.80;;;0.80;;
22415;SDS011;12204;50.600;4.608;2023-03-17T04:23:52;1.42;;;0.70;;
22415;SDS011;12204;50.600;4.608;2023-03-17T04:28:56;2.25;;;0.88;;
22415;SDS011;12204;50.600;4.608;2023-03-17T04:34:00;2.03;;;1.00;;
22415;SDS011;12204;50.600;4.608;2023-03-17T04:39:05;1.63;;;0.73;;
22415;SDS011;12204;50.600;4.608;2023-03-17T04:44:08;1.85;;;0.70;;
22415;SDS011;12204;50.600;4.608;2023-03-17T04:49:11;1.40;;;0.80;;
22415;SDS011;12204;50.600;4.608;2023-03-17T04:54:16;1.35;;;0.70;;
22415;SDS011;12204;50.600;4.608;2023-03-17T04:59:20;2.50;;;0.80;;
22415;SDS011;12204;50.600;4.608;2023-03-17T05:04:24;1.63;;;0.70;;
22415;SDS011;12204;50.600;4.608;2023-03-17T05:09:33;1.65;;;0.70;;
22415;SDS011;12204;50.600;4.608;2023-03-17T05:14:37;1.48;;;0.70;;
22415;SDS011;12204;50.600;4.608;2023-03-17T05:19:42;2.78;;;0.80;;
22415;SDS011;12204;50.600;4.608;2023-03-17T05:24:47;1.63;;;0.80;;
22415;SDS011;12204;50.600;4.608;2023-03-17T05:29:50;2.85;;;0.90;;
22415;SDS011;12204;50.600;4.608;2023-03-17T05:34:54;1.55;;;0.73;;
22415;SDS011;12204;50.600;4.608;2023-03-17T05:39:59;2.13;;;0.80;;
22415;SDS011;12204;50.600;4.608;2023-03-17T05:45:03;1.95;;;0.82;;
22415;SDS011;12204;50.600;4.608;2023-03-17T05:50:09;1.92;;;0.70;;
22415;SDS011;12204;50.600;4.608;2023-03-17T05:55:15;3.88;;;0.85;;
22415;SDS011;12204;50.600;4.608;2023-03-17T06:00:22;1.88;;;0.80;;
22415;SDS011;12204;50.600;4.608;2023-03-17T06:05:25;1.98;;;0.80;;
22415;SDS011;12204;50.600;4.608;2023-03-17T06:10:31;2.45;;;0.80;;
22415;SDS011;12204;50.600;4.608;2023-03-17T06:15:35;1.25;;;0.70;;
22415;SDS011;12204;50.600;4.608;2023-03-17T06:20:38;1.60;;;0.70;;
22415;SDS011;12204;50.600;4.608;2023-03-17T06:25:43;1.70;;;0.70;;
22415;SDS011;12204;50.600;4.608;2023-03-17T06:30:48;2.08;;;0.90;;
22415;SDS011;12204;50.600;4.608;2023-03-17T06:35:51;2.17;;;0.70;;
22415;SDS011;12204;50.600;4.608;2023-03-17T06:40:56;2.10;;;0.80;;
22415;SDS011;12204;50.600;4.608;2023-03-17T06:45:59;2.00;;;0.90;;
22415;SDS011;12204;50.600;4.608;2023-03-17T06:51:04;1.58;;;0.77;;
22415;SDS011;12204;50.600;4.608;2023-03-17T06:56:09;2.17;;;0.80;;
22415;SDS011;12204;50.600;4.608;2023-03-17T07:01:29;2.28;;;0.88;;
22415;SDS011;12204;50.600;4.608;2023-03-17T07:06:34;2.05;;;0.80;;
22415;SDS011;12204;50.600;4.608;2023-03-17T07:11:39;1.98;;;0.80;;
22415;SDS011;12204;50.600;4.608;2023-03-17T07:16:43;1.65;;;0.73;;
22415;SDS011;12204;50.600;4.608;2023-03-17T07:21:46;1.67;;;0.80;;
22415;SDS011;12204;50.600;4.608;2023-03-17T07:26:51;2.47;;;0.90;;
22415;SDS011;12204;50.600;4.608;2023-03-17T07:31:54;2.55;;;0.85;;
22415;SDS011;12204;50.600;4.608;2023-03-17T07:36:58;2.38;;;0.80;;
22415;SDS011;12204;50.600;4.608;2023-03-17T07:42:03;1.88;;;0.90;;
22415;SDS011;12204;50.600;4.608;2023-03-17T07:47:07;2.33;;;0.90;;
22415;SDS011;12204;50.600;4.608;2023-03-17T07:52:13;1.10;;;0.63;;
22415;SDS011;12204;50.600;4.608;2023-03-17T07:57:18;2.58;;;0.80;;
22415;SDS011;12204;50.600;4.608;2023-03-17T08:02:22;2.03;;;0.80;;
22415;SDS011;12204;50.600;4.608;2023-03-17T08:07:26;2.40;;;0.82;;
22415;SDS011;12204;50.600;4.608;2023-03-17T08:12:32;2.03;;;0.80;;
22415;SDS011;12204;50.600;4.608;2023-03-17T08:17:36;1.50;;;0.70;;
22415;SDS011;12204;50.600;4.608;2023-03-17T08:22:42;1.75;;;0.80;;
22415;SDS011;12204;50.600;4.608;2023-03-17T08:27:47;1.63;;;0.70;;
22415;SDS011;12204;50.600;4.608;2023-03-17T08:32:50;2.20;;;0.75;;
22415;SDS011;12204;50.600;4.608;2023-03-17T08:37:55;2.05;;;0.80;;
22415;SDS011;12204;50.600;4.608;2023-03-17T08:43:00;1.98;;;0.80;;
22415;SDS011;12204;50.600;4.608;2023-03-17T08:48:04;1.88;;;0.80;;
22415;SDS011;12204;50.600;4.608;2023-03-17T08:53:07;2.38;;;0.80;;
22415;SDS011;12204;50.600;4.608;2023-03-17T08:58:12;2.85;;;1.00;;
22415;SDS011;12204;50.600;4.608;2023-03-17T09:03:16;1.85;;;0.88;;
22415;SDS011;12204;50.600;4.608;2023-03-17T09:08:21;1.73;;;0.82;;
22415;SDS011;12204;50.600;4.608;2023-03-17T09:13:26;1.58;;;0.70;;
22415;SDS011;12204;50.600;4.608;2023-03-17T09:18:30;2.55;;;0.90;;
22415;SDS011;12204;50.600;4.608;2023-03-17T09:23:34;2.42;;;0.90;;
22415;SDS011;12204;50.600;4.608;2023-03-17T09:28:39;3.17;;;0.90;;
22415;SDS011;12204;50.600;4.608;2023-03-17T09:33:42;2.25;;;0.90;;
22415;SDS011;12204;50.600;4.608;2023-03-17T09:38:47;2.60;;;0.90;;
22415;SDS011;12204;50.600;4.608;2023-03-17T09:43:53;1.92;;;0.90;;
22415;SDS011;12204;50.600;4.608;2023-03-17T09:49:07;1.83;;;0.80;;
22415;SDS011;12204;50.600;4.608;2023-03-17T09:54:15;1.65;;;0.80;;
22415;SDS011;12204;50.600;4.608;2023-03-17T09:59:29;2.67;;;1.00;;
22415;SDS011;12204;50.600;4.608;2023-03-17T10:04:37;1.65;;;0.70;;
22415;SDS011;12204;50.600;4.608;2023-03-17T10:09:43;2.13;;;0.90;;
22415;SDS011;12204;50.600;4.608;2023-03-17T10:15:01;2.13;;;0.80;;
22415;SDS011;12204;50.600;4.608;2023-03-17T10:20:10;2.10;;;0.88;;
22415;SDS011;12204;50.600;4.608;2023-03-17T10:25:19;1.80;;;1.00;;
22415;SDS011;12204;50.600;4.608;2023-03-17T10:30:29;2.10;;;0.80;;
22415;SDS011;12204;50.600;4.608;2023-03-17T10:35:35;1.58;;;0.80;;
22415;SDS011;12204;50.600;4.608;2023-03-17T10:40:39;2.08;;;0.80;;
22415;SDS011;12204;50.600;4.608;2023-03-17T10:45:58;2.80;;;1.00;;
22415;SDS011;12204;50.600;4.608;2023-03-17T10:51:04;2.72;;;0.90;;
22415;SDS011;12204;50.600;4.608;2023-03-17T10:56:21;1.92;;;0.90;;
22415;SDS011;12204;50.600;4.608;2023-03-17T11:01:29;1.92;;;0.82;;
22415;SDS011;12204;50.600;4.608;2023-03-17T11:06:41;1.63;;;0.70;;
22415;SDS011;12204;50.600;4.608;2023-03-17T11:11:58;2.25;;;0.90;;
22415;SDS011;12204;50.600;4.608;2023-03-17T11:17:12;2.40;;;0.95;;
22415;SDS011;12204;50.600;4.608;2023-03-17T11:22:24;1.88;;;0.80;;
22415;SDS011;12204;50.600;4.608;2023-03-17T11:27:37;1.90;;;0.90;;
22415;SDS011;12204;50.600;4.608;2023-03-17T11:32:52;2.50;;;0.90;;
22415;SDS011;12204;50.600;4.608;2023-03-17T11:43:26;2.40;;;0.90;;
22415;SDS011;12204;50.600;4.608;2023-03-17T11:48:39;2.85;;;1.10;;
22415;SDS011;12204;50.600;4.608;2023-03-17T11:53:56;1.98;;;0.80;;
22415;SDS011;12204;50.600;4.608;2023-03-17T11:59:13;2.42;;;0.90;;
22415;SDS011;12204;50.600;4.608;2023-03-17T12:04:29;2.30;;;0.90;;
22415;SDS011;12204;50.600;4.608;2023-03-17T12:09:39;1.90;;;0.80;;
22415;SDS011;12204;50.600;4.608;2023-03-17T12:14:47;3.33;;;1.00;;
22415;SDS011;12204;50.600;4.608;2023-03-17T12:20:00;2.17;;;0.90;;
22415;SDS011;12204;50.600;4.608;2023-03-17T12:25:17;1.60;;;0.90;;
22415;SDS011;12204;50.600;4.608;2023-03-17T12:30:29;1.83;;;0.90;;
22415;SDS011;12204;50.600;4.608;2023-03-17T12:35:42;1.75;;;0.93;;
22415;SDS011;12204;50.600;4.608;2023-03-17T12:41:01;1.88;;;0.75;;
22415;SDS011;12204;50.600;4.608;2023-03-17T12:52:31;1.63;;;0.80;;
22415;SDS011;12204;50.600;4.608;2023-03-17T12:57:56;2.42;;;0.90;;
22415;SDS011;12204;50.600;4.608;2023-03-17T13:03:10;1.95;;;0.80;;
22415;SDS011;12204;50.600;4.608;2023-03-17T13:08:27;2.60;;;0.80;;
22415;SDS011;12204;50.600;4.608;2023-03-17T13:13:35;3.13;;;1.02;;
22415;SDS011;12204;50.600;4.608;2023-03-17T13:18:48;1.45;;;0.70;;
22415;SDS011;12204;50.600;4.608;2023-03-17T13:29:47;1.77;;;0.80;;
22415;SDS011;12204;50.600;4.608;2023-03-17T13:34:52;1.77;;;0.80;;
22415;SDS011;12204;50.600;4.608;2023-03-17T13:40:15;3.60;;;0.95;;
22415;SDS011;12204;50.600;4.608;2023-03-17T13:45:36;2.30;;;1.00;;
22415;SDS011;12204;50.600;4.608;2023-03-17T13:50:42;2.08;;;0.90;;
22415;SDS011;12204;50.600;4.608;2023-03-17T14:01:21;1.85;;;0.80;;
22415;SDS011;12204;50.600;4.608;2023-03-17T14:06:26;2.15;;;0.80;;
22415;SDS011;12204;50.600;4.608;2023-03-17T14:11:32;2.33;;;0.98;;
22415;SDS011;12204;50.600;4.608;2023-03-17T14:16:42;2.20;;;1.00;;
22415;SDS011;12204;50.600;4.608;2023-03-17T14:22:00;1.63;;;0.80;;
22415;SDS011;12204;50.600;4.608;2023-03-17T14:27:05;1.95;;;0.85;;
22415;SDS011;12204;50.600;4.608;2023-03-17T14:32:17;1.85;;;0.90;;
22415;SDS011;12204;50.600;4.608;2023-03-17T14:37:23;2.58;;;0.90;;
22415;SDS011;12204;50.600;4.608;2023-03-17T14:42:29;1.77;;;0.85;;
22415;SDS011;12204;50.600;4.608;2023-03-17T14:47:36;2.40;;;0.90;;
22415;SDS011;12204;50.600;4.608;2023-03-17T14:52:43;2.13;;;0.95;;
22415;SDS011;12204;50.600;4.608;2023-03-17T14:57:48;1.65;;;0.80;;
22415;SDS011;12204;50.600;4.608;2023-03-17T15:02:55;2.45;;;1.00;;
22415;SDS011;12204;50.600;4.608;2023-03-17T15:13:48;1.58;;;0.77;;
22415;SDS011;12204;50.600;4.608;2023-03-17T15:19:03;1.88;;;0.90;;
22415;SDS011;12204;50.600;4.608;2023-03-17T15:24:19;2.00;;;0.90;;
22415;SDS011;12204;50.600;4.608;2023-03-17T15:29:34;2.38;;;1.00;;
22415;SDS011;12204;50.600;4.608;2023-03-17T15:34:39;2.65;;;0.98;;
22415;SDS011;12204;50.600;4.608;2023-03-17T15:39:43;2.10;;;0.90;;
22415;SDS011;12204;50.600;4.608;2023-03-17T15:44:47;1.60;;;0.90;;
22415;SDS011;12204;50.600;4.608;2023-03-17T15:49:52;3.00;;;0.85;;
22415;SDS011;12204;50.600;4.608;2023-03-17T15:55:00;2.03;;;0.90;;
22415;SDS011;12204;50.600;4.608;2023-03-17T16:00:06;2.90;;;1.00;;
22415;SDS011;12204;50.600;4.608;2023-03-17T16:05:19;2.05;;;1.00;;
22415;SDS011;12204;50.600;4.608;2023-03-17T16:10:27;2.70;;;0.95;;
22415;SDS011;12204;50.600;4.608;2023-03-17T16:15:35;1.95;;;0.90;;
22415;SDS011;12204;50.600;4.608;2023-03-17T16:20:43;3.47;;;1.05;;
22415;SDS011;12204;50.600;4.608;2023-03-17T16:25:49;2.25;;;0.90;;
22415;SDS011;12204;50.600;4.608;2023-03-17T16:30:56;2.55;;;1.00;;
22415;SDS011;12204;50.600;4.608;2023-03-17T16:36:03;2.97;;;1.00;;
22415;SDS011;12204;50.600;4.608;2023-03-17T16:41:08;3.72;;;1.08;;
22415;SDS011;12204;50.600;4.608;2023-03-17T16:46:21;2.40;;;0.93;;
22415;SDS011;12204;50.600;4.608;2023-03-17T16:51:26;3.05;;;0.88;;
22415;SDS011;12204;50.600;4.608;2023-03-17T16:56:29;2.42;;;0.98;;
22415;SDS011;12204;50.600;4.608;2023-03-17T17:01:33;2.00;;;0.80;;
22415;SDS011;12204;50.600;4.608;2023-03-17T17:06:38;2.95;;;0.90;;
22415;SDS011;12204;50.600;4.608;2023-03-17T17:11:41;2.08;;;0.90;;
22415;SDS011;12204;50.600;4.608;2023-03-17T17:16:44;2.97;;;1.10;;
22415;SDS011;12204;50.600;4.608;2023-03-17T17:21:49;2.67;;;1.00;;
22415;SDS011;12204;50.600;4.608;2023-03-17T17:26:53;2.70;;;1.00;;
22415;SDS011;12204;50.600;4.608;2023-03-17T17:31:56;2.60;;;0.90;;
22415;SDS011;12204;50.600;4.608;2023-03-17T17:37:01;2.45;;;1.08;;
22415;SDS011;12204;50.600;4.608;2023-03-17T17:42:05;2.63;;;1.08;;
22415;SDS011;12204;50.600;4.608;2023-03-17T17:47:11;2.45;;;1.05;;
22415;SDS011;12204;50.600;4.608;2023-03-17T17:52:17;2.63;;;0.90;;
22415;SDS011;12204;50.600;4.608;2023-03-17T17:57:21;1.90;;;0.90;;
22415;SDS011;12204;50.600;4.608;2023-03-17T18:02:24;2.65;;;1.10;;
22415;SDS011;12204;50.600;4.608;2023-03-17T18:07:29;3.08;;;1.08;;
22415;SDS011;12204;50.600;4.608;2023-03-17T18:12:33;2.97;;;1.00;;
22415;SDS011;12204;50.600;4.608;2023-03-17T18:17:36;2.63;;;1.00;;
22415;SDS011;12204;50.600;4.608;2023-03-17T18:22:41;3.20;;;1.13;;
22415;SDS011;12204;50.600;4.608;2023-03-17T18:27:46;2.85;;;1.05;;
22415;SDS011;12204;50.600;4.608;2023-03-17T18:32:50;4.40;;;1.10;;
22415;SDS011;12204;50.600;4.608;2023-03-17T18:38:00;3.47;;;1.10;;
22415;SDS011;12204;50.600;4.608;2023-03-17T18:43:03;3.08;;;1.10;;
22415;SDS011;12204;50.600;4.608;2023-03-17T18:48:07;2.38;;;1.20;;
22415;SDS011;12204;50.600;4.608;2023-03-17T18:53:11;3.85;;;1.30;;
22415;SDS011;12204;50.600;4.608;2023-03-17T18:58:15;3.95;;;1.30;;
22415;SDS011;12204;50.600;4.608;2023-03-17T19:03:18;2.83;;;1.15;;
22415;SDS011;12204;50.600;4.608;2023-03-17T19:08:23;3.55;;;1.30;;
22415;SDS011;12204;50.600;4.608;2023-03-17T19:13:27;3.95;;;1.23;;
22415;SDS011;12204;50.600;4.608;2023-03-17T19:18:30;3.35;;;1.20;;
22415;SDS011;12204;50.600;4.608;2023-03-17T19:23:35;3.17;;;1.20;;
22415;SDS011;12204;50.600;4.608;2023-03-17T19:28:39;3.88;;;1.30;;
22415;SDS011;12204;50.600;4.608;2023-03-17T19:33:43;3.08;;;1.13;;
22415;SDS011;12204;50.600;4.608;2023-03-17T19:38:48;4.18;;;1.48;;
22415;SDS011;12204;50.600;4.608;2023-03-17T19:43:52;2.88;;;1.20;;
22415;SDS011;12204;50.600;4.608;2023-03-17T19:48:55;3.40;;;1.25;;
22415;SDS011;12204;50.600;4.608;2023-03-17T19:54:00;3.47;;;1.20;;
22415;SDS011;12204;50.600;4.608;2023-03-17T19:59:05;3.72;;;1.30;;
22415;SDS011;12204;50.600;4.608;2023-03-17T20:04:09;3.67;;;1.30;;
22415;SDS011;12204;50.600;4.608;2023-03-17T20:09:19;3.45;;;1.50;;
22415;SDS011;12204;50.600;4.608;2023-03-17T20:14:24;3.35;;;1.30;;
22415;SDS011;12204;50.600;4.608;2023-03-17T20:19:28;2.97;;;1.20;;
22415;SDS011;12204;50.600;4.608;2023-03-17T20:24:34;2.92;;;1.20;;
22415;SDS011;12204;50.600;4.608;2023-03-17T20:29:38;3.08;;;1.20;;
22415;SDS011;12204;50.600;4.608;2023-03-17T20:34:43;4.03;;;1.27;;
22415;SDS011;12204;50.600;4.608;2023-03-17T20:39:48;3.50;;;1.30;;
22415;SDS011;12204;50.600;4.608;2023-03-17T20:44:52;3.45;;;1.20;;
22415;SDS011;12204;50.600;4.608;2023-03-17T20:49:57;3.80;;;1.48;;
22415;SDS011;12204;50.600;4.608;2023-03-17T20:55:02;4.13;;;1.40;;
22415;SDS011;12204;50.600;4.608;2023-03-17T21:00:07;4.13;;;1.10;;
22415;SDS011;12204;50.600;4.608;2023-03-17T21:05:18;3.17;;;1.40;;
22415;SDS011;12204;50.600;4.608;2023-03-17T21:10:26;4.00;;;1.43;;
22415;SDS011;12204;50.600;4.608;2023-03-17T21:15:31;3.38;;;1.30;;
22415;SDS011;12204;50.600;4.608;2023-03-17T21:20:34;3.35;;;1.25;;
22415;SDS011;12204;50.600;4.608;2023-03-17T21:25:39;3.83;;;1.35;;
22415;SDS011;12204;50.600;4.608;2023-03-17T21:30:43;3.80;;;1.42;;
22415;SDS011;12204;50.600;4.608;2023-03-17T21:35:47;3.42;;;1.30;;
22415;SDS011;12204;50.600;4.608;2023-03-17T21:40:52;3.90;;;1.20;;
22415;SDS011;12204;50.600;4.608;2023-03-17T21:45:55;3.28;;;1.40;;
22415;SDS011;12204;50.600;4.608;2023-03-17T21:50:59;3.38;;;1.35;;
22415;SDS011;12204;50.600;4.608;2023-03-17T21:56:04;2.67;;;1.17;;
22415;SDS011;12204;50.600;4.608;2023-03-17T22:01:09;4.10;;;1.45;;
22415;SDS011;12204;50.600;4.608;2023-03-17T22:06:14;4.25;;;1.48;;
22415;SDS011;12204;50.600;4.608;2023-03-17T22:11:20;4.20;;;1.50;;
22415;SDS011;12204;50.600;4.608;2023-03-17T22:16:24;3.85;;;1.38;;
22415;SDS011;12204;50.600;4.608;2023-03-17T22:21:28;4.55;;;1.55;;
22415;SDS011;12204;50.600;4.608;2023-03-17T22:26:33;3.78;;;1.38;;
22415;SDS011;12204;50.600;4.608;2023-03-17T22:31:37;3.85;;;1.50;;
22415;SDS011;12204;50.600;4.608;2023-03-17T22:36:41;3.40;;;1.30;;
22415;SDS011;12204;50.600;4.608;2023-03-17T22:41:46;3.42;;;1.50;;
22415;SDS011;12204;50.600;4.608;2023-03-17T22:46:49;4.20;;;1.30;;
22415;SDS011;12204;50.600;4.608;2023-03-17T22:51:53;3.30;;;1.25;;
22415;SDS011;12204;50.600;4.608;2023-03-17T22:56:58;3.35;;;1.40;;
22415;SDS011;12204;50.600;4.608;2023-03-17T23:02:01;3.13;;;1.25;;
22415;SDS011;12204;50.600;4.608;2023-03-17T23:07:05;3.53;;;1.48;;
22415;SDS011;12204;50.600;4.608;2023-03-17T23:12:10;2.80;;;1.30;;
22415;SDS011;12204;50.600;4.608;2023-03-17T23:17:14;3.35;;;1.38;;
22415;SDS011;12204;50.600;4.608;2023-03-17T23:22:17;3.13;;;1.25;;
22415;SDS011;12204;50.600;4.608;2023-03-17T23:27:23;4.47;;;1.55;;
22415;SDS011;12204;50.600;4.608;2023-03-17T23:32:26;3.70;;;1.48;;
22415;SDS011;12204;50.600;4.608;2023-03-17T23:37:30;4.22;;;1.58;;
22415;SDS011;12204;50.600;4.608;2023-03-17T23:42:35;4.03;;;1.40;;
22415;SDS011;12204;50.600;4.608;2023-03-17T23:47:45;3.45;;;1.58;;
22415;SDS011;12204;50.600;4.608;2023-03-17T23:52:53;4.88;;;1.65;;
22415;SDS011;12204;50.600;4.608;2023-03-17T23:57:58;3.67;;;1.58;;
